Time;durP1;ratioP1;P1;durP2;ratioP2;P2;SDS_P1;SDS_P2;PMS_P1;PMS_P2;Temp;Humidity;BMP_temperature;BMP_pressure;BME280_temperature;BME280_humidity;BME280_pressure;Samples;Min_cycle;Max_cycle;Signal;HPM_P1;HPM_P2
2023/03/25 00:00:16;;;;;;;2.50;1.20;;;9.40;90.20;;;;;;5029285;28;20648;-75
2023/03/25 00:02:46;;;;;;;2.30;1.30;;;9.40;90.20;;;;;;5026876;28;20231;-75
2023/03/25 00:05:15;;;;;;;2.87;1.23;;;9.30;90.20;;;;;;5026480;28;21176;-75
2023/03/25 00:07:42;;;;;;;2.47;1.23;;;9.10;89.60;;;;;;5028077;28;20428;-75
2023/03/25 00:10:08;;;;;;;1.50;1.10;;;9.00;89.00;;;;;;5043208;28;20473;-73
2023/03/25 00:12:34;;;;;;;2.53;0.97;;;8.90;89.50;;;;;;5037357;28;20482;-75
2023/03/25 00:14:59;;;;;;;1.67;0.90;;;8.80;89.30;;;;;;5037960;28;20423;-73
2023/03/25 00:17:27;;;;;;;2.17;0.90;;;8.70;89.00;;;;;;5037753;28;20653;-73
2023/03/25 00:19:54;;;;;;;1.17;0.80;;;8.70;88.90;;;;;;5038468;28;20200;-74
2023/03/25 00:22:20;;;;;;;1.53;0.90;;;8.70;88.70;;;;;;5035204;28;20533;-74
2023/03/25 00:24:47;;;;;;;1.27;0.70;;;8.70;87.80;;;;;;5036593;28;20467;-74
2023/03/25 00:27:13;;;;;;;1.27;0.80;;;8.80;86.80;;;;;;5030955;28;20495;-75
2023/03/25 00:29:41;;;;;;;1.47;0.80;;;8.80;86.00;;;;;;5032683;28;20419;-74
2023/03/25 00:32:06;;;;;;;1.23;0.80;;;8.80;85.70;;;;;;5030349;28;20469;-75
2023/03/25 00:34:34;;;;;;;1.60;0.80;;;8.80;86.00;;;;;;5028609;28;20511;-75
2023/03/25 00:37:01;;;;;;;1.00;0.80;;;8.80;86.20;;;;;;5032490;28;20189;-75
2023/03/25 00:39:27;;;;;;;1.53;0.90;;;8.70;86.30;;;;;;5028504;28;20917;-76
2023/03/25 00:41:56;;;;;;;1.07;0.80;;;8.80;86.50;;;;;;5029916;28;20495;-75
2023/03/25 00:44:21;;;;;;;2.80;0.83;;;8.80;85.60;;;;;;5026583;28;20497;-75
2023/03/25 00:46:47;;;;;;;1.20;0.87;;;8.70;85.70;;;;;;5038033;28;20865;-76
2023/03/25 00:49:12;;;;;;;1.93;0.97;;;8.70;85.90;;;;;;5037659;28;20177;-75
2023/03/25 00:51:38;;;;;;;1.53;0.87;;;8.70;85.90;;;;;;5035500;28;20272;-75
2023/03/25 00:54:04;;;;;;;1.47;0.80;;;8.70;85.50;;;;;;5040826;28;20257;-75
2023/03/25 00:56:33;;;;;;;1.20;0.83;;;8.60;85.60;;;;;;5048528;28;20189;-76
2023/03/25 00:58:58;;;;;;;3.03;0.80;;;8.70;85.70;;;;;;5049340;28;20181;-76
2023/03/25 01:01:26;;;;;;;3.30;1.20;;;8.60;85.60;;;;;;5046144;28;20487;-75
2023/03/25 01:03:58;;;;;;;4.10;1.40;;;8.60;85.70;;;;;;5041715;28;20185;-76
2023/03/25 01:06:31;;;;;;;2.83;0.97;;;8.60;85.60;;;;;;5048510;28;20463;-75
2023/03/25 01:08:58;;;;;;;2.60;1.00;;;8.60;85.90;;;;;;5048490;28;20428;-75
2023/03/25 01:11:30;;;;;;;1.53;0.80;;;8.60;84.70;;;;;;5045814;28;20455;-75
2023/03/25 01:13:58;;;;;;;3.63;1.20;;;8.60;83.40;;;;;;5051460;28;20458;-76
2023/03/25 01:16:24;;;;;;;2.30;1.00;;;8.60;83.60;;;;;;5047193;28;20455;-77
2023/03/25 01:18:50;;;;;;;3.23;1.10;;;8.70;82.50;;;;;;5049386;28;20430;-75
2023/03/25 01:21:16;;;;;;;3.10;1.50;;;8.70;82.20;;;;;;5046072;28;20527;-75
2023/03/25 01:23:42;;;;;;;2.67;1.37;;;8.80;81.80;;;;;;5035709;28;20676;-76
2023/03/25 01:26:08;;;;;;;1.93;0.87;;;8.80;82.10;;;;;;5034929;28;20477;-76
2023/03/25 01:28:33;;;;;;;1.83;1.10;;;8.80;81.90;;;;;;5047055;28;20185;-74
2023/03/25 01:31:04;;;;;;;5.80;1.13;;;8.80;81.70;;;;;;5033284;28;20459;-76
2023/03/25 01:33:31;;;;;;;2.73;1.10;;;8.80;81.70;;;;;;5034764;28;20751;-76
2023/03/25 01:36:01;;;;;;;2.80;1.30;;;8.80;81.70;;;;;;5045423;28;20474;-76
2023/03/25 01:38:29;;;;;;;3.33;1.27;;;8.80;81.80;;;;;;5035928;28;20440;-79
2023/03/25 01:40:55;;;;;;;2.80;1.43;;;8.80;81.80;;;;;;5038723;28;20517;-76
2023/03/25 01:43:22;;;;;;;1.87;1.00;;;8.80;81.80;;;;;;5044862;28;20463;-76
2023/03/25 01:45:49;;;;;;;2.63;1.23;;;8.90;81.90;;;;;;5033886;28;20486;-77
2023/03/25 01:48:31;;;;;;;1.87;1.00;;;8.90;81.70;;;;;;5032515;28;20424;-75
2023/03/25 01:51:19;;;;;;;3.20;1.27;;;8.90;81.50;;;;;;5025069;28;20456;-77
2023/03/25 01:53:45;;;;;;;3.40;1.03;;;8.90;81.50;;;;;;5026891;28;20523;-76
2023/03/25 01:56:14;;;;;;;3.97;1.10;;;8.90;81.10;;;;;;5028940;28;20459;-76
2023/03/25 01:58:40;;;;;;;4.43;1.10;;;8.90;81.10;;;;;;5029003;28;20969;-77
2023/03/25 02:01:12;;;;;;;8.93;1.27;;;9.00;81.20;;;;;;5026800;28;20467;-77
2023/03/25 02:03:45;;;;;;;4.33;1.17;;;8.90;81.40;;;;;;5030922;28;20208;-76
2023/03/25 02:06:27;;;;;;;1.90;0.90;;;8.90;81.50;;;;;;5035960;28;20471;-77
2023/03/25 02:08:55;;;;;;;1.80;0.80;;;8.80;81.10;;;;;;5029520;28;20914;-75
2023/03/25 02:11:21;;;;;;;5.07;1.20;;;8.80;81.20;;;;;;5025244;28;20461;-76
2023/03/25 02:13:46;;;;;;;3.67;1.10;;;8.90;81.20;;;;;;5024426;28;20442;-76
2023/03/25 02:16:15;;;;;;;2.30;1.07;;;8.90;81.10;;;;;;5028948;28;20317;-75
2023/03/25 02:19:12;;;;;;;1.90;1.00;;;8.90;81.10;;;;;;5026700;28;20208;-77
2023/03/25 02:21:55;;;;;;;3.20;1.10;;;8.80;81.50;;;;;;5024424;28;20498;-77
2023/03/25 02:24:52;;;;;;;2.20;1.23;;;8.80;82.20;;;;;;5022367;28;20475;-77
2023/03/25 02:27:53;;;;;;;2.43;0.93;;;8.70;83.00;;;;;;5041920;28;20570;-76
2023/03/25 02:30:33;;;;;;;1.87;0.80;;;8.70;83.40;;;;;;5002116;28;20431;-76
2023/03/25 02:33:20;;;;;;;2.37;0.90;;;8.70;83.70;;;;;;5045013;28;20458;-76
2023/03/25 02:36:04;;;;;;;5.47;1.70;;;8.80;83.80;;;;;;5028307;28;20450;-75
2023/03/25 02:38:35;;;;;;;1.30;1.20;;;8.80;84.00;;;;;;5025598;28;20452;-76
2023/03/25 02:41:15;;;;;;;2.23;1.10;;;8.80;84.30;;;;;;5024557;28;20464;-75
2023/03/25 02:43:48;;;;;;;4.53;1.43;;;8.70;84.60;;;;;;5025480;28;20486;-76
2023/03/25 02:46:18;;;;;;;1.70;1.10;;;8.70;85.30;;;;;;5029193;28;20464;-76
2023/03/25 02:48:55;;;;;;;8.50;1.40;;;8.60;85.90;;;;;;5024535;28;20431;-77
2023/03/25 02:51:29;;;;;;;3.00;1.00;;;8.50;85.70;;;;;;5023784;28;20470;-76
2023/03/25 02:53:58;;;;;;;2.93;1.73;;;8.50;85.70;;;;;;5026952;28;20913;-76
2023/03/25 02:56:25;;;;;;;3.70;1.40;;;8.50;86.20;;;;;;5025235;28;20460;-75
2023/03/25 02:58:54;;;;;;;2.50;1.20;;;8.50;85.90;;;;;;5025858;28;20438;-75
2023/03/25 03:01:21;;;;;;;2.70;1.10;;;8.50;85.90;;;;;;5025402;28;20502;-75
2023/03/25 03:03:47;;;;;;;2.97;0.90;;;8.50;86.20;;;;;;5026801;28;21218;-76
2023/03/25 03:06:17;;;;;;;3.43;1.00;;;8.50;86.20;;;;;;5029957;28;20478;-76
2023/03/25 03:09:21;;;;;;;3.63;1.00;;;8.40;85.70;;;;;;5033795;28;20184;-76
2023/03/25 03:12:34;;;;;;;3.47;1.10;;;8.40;85.90;;;;;;4942981;29;20482;-76
2023/03/25 03:15:22;;;;;;;3.43;1.13;;;8.40;85.90;;;;;;4893995;29;20436;-75
2023/03/25 03:18:04;;;;;;;1.70;0.87;;;8.40;85.90;;;;;;4939576;29;20506;-76
2023/03/25 03:20:32;;;;;;;3.97;1.10;;;8.50;85.70;;;;;;4967295;29;20450;-76
2023/03/25 03:23:12;;;;;;;3.27;1.00;;;8.50;85.20;;;;;;4962155;28;20493;-77
2023/03/25 03:25:59;;;;;;;1.70;0.83;;;8.40;84.60;;;;;;4960121;29;20463;-75
2023/03/25 03:28:31;;;;;;;3.70;1.00;;;8.40;83.40;;;;;;4962977;29;20944;-76
2023/03/25 03:31:19;;;;;;;2.63;1.07;;;8.40;82.80;;;;;;4958228;29;20451;-75
2023/03/25 03:33:51;;;;;;;1.90;1.00;;;8.40;82.50;;;;;;4958236;29;20459;-76
2023/03/25 03:36:20;;;;;;;1.43;0.80;;;8.40;81.20;;;;;;4950572;29;20450;-76
2023/03/25 03:38:55;;;;;;;2.40;0.93;;;8.40;79.90;;;;;;4946660;29;20442;-75
2023/03/25 03:41:25;;;;;;;0.93;0.70;;;8.30;79.70;;;;;;4948219;29;20475;-75
2023/03/25 03:43:58;;;;;;;1.77;0.80;;;8.20;79.50;;;;;;4948711;28;20438;-76
2023/03/25 03:46:31;;;;;;;1.10;0.70;;;8.20;78.90;;;;;;4937568;29;20467;-76
2023/03/25 03:48:58;;;;;;;1.17;0.70;;;8.20;79.50;;;;;;5016756;28;20428;-76
2023/03/25 03:51:29;;;;;;;1.07;0.60;;;8.10;79.60;;;;;;5026899;28;20471;-75
2023/03/25 03:54:06;;;;;;;1.97;0.80;;;8.10;79.70;;;;;;5030014;28;20416;-75
2023/03/25 03:56:45;;;;;;;1.07;0.60;;;8.00;79.90;;;;;;5031177;28;20455;-76
2023/03/25 03:59:19;;;;;;;1.30;0.77;;;8.00;80.00;;;;;;5031677;28;20411;-76
2023/03/25 04:01:52;;;;;;;2.40;0.80;;;7.90;80.20;;;;;;5022777;28;20470;-76
2023/03/25 04:04:21;;;;;;;0.90;0.67;;;7.90;80.50;;;;;;5032268;28;20463;-76
2023/03/25 04:06:49;;;;;;;1.23;0.90;;;7.90;81.10;;;;;;5028788;28;20544;-77
2023/03/25 04:09:33;;;;;;;1.83;0.60;;;7.90;81.20;;;;;;5030856;28;20419;-77
2023/03/25 04:12:16;;;;;;;1.10;0.60;;;7.90;81.20;;;;;;5025968;28;20471;-75
2023/03/25 04:14:43;;;;;;;1.00;0.63;;;7.90;80.90;;;;;;5028767;28;20437;-76
2023/03/25 04:17:09;;;;;;;1.13;0.50;;;7.90;81.40;;;;;;5028267;28;20515;-77
2023/03/25 04:19:34;;;;;;;0.93;0.67;;;7.90;81.50;;;;;;5030778;28;20578;-76
2023/03/25 04:22:02;;;;;;;1.80;1.00;;;7.90;81.50;;;;;;5032567;28;20459;-76
2023/03/25 04:24:31;;;;;;;1.30;0.80;;;7.90;81.50;;;;;;5042006;28;20178;-77
2023/03/25 04:27:03;;;;;;;2.03;0.63;;;7.90;81.80;;;;;;5036582;28;20427;-75
2023/03/25 04:29:30;;;;;;;1.50;0.70;;;7.90;81.80;;;;;;5043627;28;20443;-76
2023/03/25 04:31:56;;;;;;;1.17;0.70;;;7.90;81.90;;;;;;5039111;28;20447;-75
2023/03/25 04:34:22;;;;;;;1.50;0.60;;;7.90;82.10;;;;;;5024383;28;20793;-76
2023/03/25 04:36:51;;;;;;;1.23;0.60;;;7.80;82.10;;;;;;5034312;28;20427;-76
2023/03/25 04:39:17;;;;;;;1.97;0.80;;;7.80;82.40;;;;;;5035356;28;20914;-76
2023/03/25 04:41:43;;;;;;;0.83;0.60;;;7.80;82.50;;;;;;5027978;28;20447;-75
2023/03/25 04:44:09;;;;;;;2.90;1.13;;;7.80;82.50;;;;;;5029836;28;20915;-75
2023/03/25 04:46:36;;;;;;;2.40;0.93;;;7.70;82.70;;;;;;5031886;28;20506;-75
2023/03/25 04:49:12;;;;;;;3.77;1.53;;;7.70;82.80;;;;;;5030018;28;20515;-77
2023/03/25 04:51:40;;;;;;;1.63;0.90;;;7.70;82.80;;;;;;5026869;28;20982;-76
2023/03/25 04:54:06;;;;;;;5.80;1.03;;;7.70;82.70;;;;;;5030368;28;20926;-75
2023/03/25 04:56:32;;;;;;;1.77;0.80;;;7.70;82.80;;;;;;5027243;28;20435;-77
2023/03/25 04:58:57;;;;;;;1.53;0.73;;;7.70;82.80;;;;;;5035076;28;20428;-76
2023/03/25 05:01:30;;;;;;;4.00;0.90;;;7.60;83.00;;;;;;5031038;28;20214;-77
2023/03/25 05:04:03;;;;;;;1.43;0.87;;;7.70;82.50;;;;;;5037834;28;20189;-75
2023/03/25 05:06:40;;;;;;;2.10;0.80;;;7.70;82.40;;;;;;5039163;28;20833;-76
2023/03/25 05:09:08;;;;;;;3.67;0.97;;;7.70;82.20;;;;;;5033515;28;20800;-75
2023/03/25 05:11:40;;;;;;;2.50;1.07;;;7.70;82.40;;;;;;5030173;28;20455;-75
2023/03/25 05:14:06;;;;;;;5.50;1.33;;;7.70;82.20;;;;;;5034933;28;20411;-77
2023/03/25 05:16:33;;;;;;;2.20;1.00;;;7.70;82.20;;;;;;5034685;28;20428;-77
2023/03/25 05:18:58;;;;;;;3.53;1.20;;;7.70;81.90;;;;;;5034797;28;20424;-76
2023/03/25 05:21:24;;;;;;;3.20;1.00;;;7.80;81.50;;;;;;5032086;28;20474;-77
2023/03/25 05:23:51;;;;;;;1.33;0.93;;;7.90;81.20;;;;;;5034071;28;20212;-76
2023/03/25 05:26:17;;;;;;;7.27;1.90;;;7.90;81.40;;;;;;5037573;28;20209;-75
2023/03/25 05:28:42;;;;;;;2.20;1.10;;;8.00;80.80;;;;;;5037552;28;20433;-77
2023/03/25 05:31:08;;;;;;;3.03;0.90;;;8.00;80.30;;;;;;5028828;28;20426;-76
2023/03/25 05:33:36;;;;;;;5.03;1.50;;;8.10;79.90;;;;;;5037012;28;20200;-75
2023/03/25 05:36:03;;;;;;;2.10;1.00;;;8.20;79.90;;;;;;5036997;28;20256;-75
2023/03/25 05:38:29;;;;;;;2.67;1.00;;;8.20;79.90;;;;;;5038871;28;20439;-76
2023/03/25 05:40:55;;;;;;;2.47;1.30;;;8.10;79.50;;;;;;5039847;28;20455;-76
2023/03/25 05:43:21;;;;;;;1.43;0.83;;;8.20;79.50;;;;;;5031339;28;20181;-76
2023/03/25 05:45:47;;;;;;;6.33;1.50;;;8.20;79.50;;;;;;5030410;28;21386;-77
2023/03/25 05:48:13;;;;;;;2.90;1.07;;;8.30;79.00;;;;;;5025158;28;20408;-76
2023/03/25 05:50:41;;;;;;;4.30;1.20;;;8.30;78.30;;;;;;5024555;28;20478;-75
2023/03/25 05:53:11;;;;;;;6.80;1.47;;;8.40;78.60;;;;;;5028509;28;20530;-76
2023/03/25 05:55:37;;;;;;;4.50;1.67;;;8.40;78.40;;;;;;5036031;28;20412;-75
2023/03/25 05:58:03;;;;;;;4.07;2.00;;;8.40;78.10;;;;;;5036224;28;20424;-77
2023/03/25 06:00:29;;;;;;;1.87;1.10;;;8.40;78.00;;;;;;5039044;28;20549;-76
2023/03/25 06:02:55;;;;;;;3.93;1.30;;;8.40;78.00;;;;;;5035421;28;20435;-76
2023/03/25 06:05:22;;;;;;;5.87;1.47;;;8.40;78.40;;;;;;5039596;28;20470;-76
2023/03/25 06:07:48;;;;;;;3.13;1.30;;;8.50;78.10;;;;;;5035263;28;20816;-76
2023/03/25 06:10:15;;;;;;;3.57;1.10;;;8.50;78.30;;;;;;5037489;28;20420;-76
2023/03/25 06:12:42;;;;;;;1.87;0.93;;;8.50;78.60;;;;;;5031887;28;20467;-76
2023/03/25 06:15:10;;;;;;;4.27;1.43;;;8.50;78.60;;;;;;5036859;28;20434;-76
2023/03/25 06:17:39;;;;;;;4.93;1.20;;;8.40;78.90;;;;;;5034566;28;20424;-77
2023/03/25 06:20:11;;;;;;;3.00;1.50;;;8.40;79.30;;;;;;5040013;28;20435;-76
2023/03/25 06:22:43;;;;;;;5.67;1.60;;;8.50;79.50;;;;;;5022759;28;20954;-76
2023/03/25 06:25:18;;;;;;;2.50;1.10;;;8.50;79.30;;;;;;5032018;28;20549;-76
2023/03/25 06:27:44;;;;;;;2.63;1.13;;;8.60;79.50;;;;;;5024791;28;20411;-75
2023/03/25 06:30:13;;;;;;;1.97;1.17;;;8.60;79.50;;;;;;5029880;28;20458;-77
2023/03/25 06:32:40;;;;;;;4.30;1.20;;;8.60;79.50;;;;;;5027975;28;20460;-77
2023/03/25 06:35:08;;;;;;;2.93;1.37;;;8.60;79.30;;;;;;5032999;28;20443;-77
2023/03/25 06:37:33;;;;;;;6.80;1.67;;;8.50;79.50;;;;;;5026565;28;20906;-77
2023/03/25 06:39:59;;;;;;;5.53;1.33;;;8.50;79.70;;;;;;5031438;28;20431;-77
2023/03/25 06:42:26;;;;;;;3.90;1.47;;;8.40;79.30;;;;;;5030876;28;20471;-76
2023/03/25 06:44:52;;;;;;;4.20;1.00;;;8.40;79.20;;;;;;5033773;28;20209;-78
2023/03/25 06:47:18;;;;;;;5.63;1.37;;;8.40;79.50;;;;;;5030187;28;20970;-76
2023/03/25 06:49:51;;;;;;;8.93;1.77;;;8.40;79.30;;;;;;5040035;28;20440;-77
2023/03/25 06:52:16;;;;;;;1.70;1.43;;;8.40;79.30;;;;;;5032048;28;20220;-77
2023/03/25 06:54:44;;;;;;;5.73;1.43;;;8.50;79.20;;;;;;5031125;28;20436;-74
2023/03/25 06:57:10;;;;;;;3.30;1.30;;;8.50;78.70;;;;;;5030699;28;20189;-76
2023/03/25 06:59:35;;;;;;;3.40;1.20;;;8.60;78.70;;;;;;5033052;28;20424;-76
2023/03/25 07:02:01;;;;;;;8.17;1.20;;;8.60;78.40;;;;;;5019113;28;20668;-76
2023/03/25 07:04:27;;;;;;;4.43;2.20;;;8.60;78.60;;;;;;5028105;28;20191;-78
2023/03/25 07:06:52;;;;;;;3.23;1.20;;;8.50;78.70;;;;;;5031313;28;20256;-76
2023/03/25 07:09:18;;;;;;;3.23;1.20;;;8.60;78.40;;;;;;5040123;28;20189;-76
2023/03/25 07:11:43;;;;;;;5.37;1.43;;;8.60;78.60;;;;;;5032730;28;20287;-77
2023/03/25 07:14:09;;;;;;;4.10;1.13;;;8.70;78.30;;;;;;5035511;28;20190;-77
2023/03/25 07:16:34;;;;;;;8.87;1.40;;;8.80;78.30;;;;;;5041675;28;20257;-76
2023/03/25 07:19:00;;;;;;;2.53;1.23;;;8.90;78.00;;;;;;5042679;28;20185;-75
2023/03/25 07:21:26;;;;;;;4.70;1.30;;;8.90;78.30;;;;;;5032987;28;20215;-75
2023/03/25 07:23:52;;;;;;;2.60;1.10;;;9.00;78.60;;;;;;5031562;28;20209;-76
2023/03/25 07:26:17;;;;;;;2.20;1.10;;;9.00;78.40;;;;;;5032587;28;20216;-77
2023/03/25 07:28:44;;;;;;;3.53;1.30;;;8.90;78.60;;;;;;5030647;28;20192;-77
2023/03/25 07:31:11;;;;;;;2.57;1.17;;;9.00;79.20;;;;;;5024459;28;20292;-77
2023/03/25 07:33:37;;;;;;;4.30;1.37;;;9.10;78.40;;;;;;5025180;28;20482;-77
2023/03/25 07:36:05;;;;;;;5.47;1.10;;;9.10;78.30;;;;;;5028367;28;20463;-77
2023/03/25 07:38:31;;;;;;;7.60;1.80;;;9.20;78.10;;;;;;5032390;28;20451;-77
2023/03/25 07:40:57;;;;;;;3.40;1.07;;;9.30;77.80;;;;;;5030441;28;20482;-77
2023/03/25 07:43:22;;;;;;;2.23;1.00;;;9.30;77.60;;;;;;5026291;28;20927;-76
2023/03/25 07:45:48;;;;;;;1.93;0.90;;;9.40;77.40;;;;;;5026302;28;20206;-76
2023/03/25 07:48:15;;;;;;;2.97;0.97;;;9.40;77.10;;;;;;5027851;28;20561;-77
2023/03/25 07:50:41;;;;;;;5.27;1.20;;;9.40;77.30;;;;;;5028684;28;20217;-75
2023/03/25 07:53:07;;;;;;;2.33;1.20;;;9.50;77.30;;;;;;5035118;28;20888;-76
2023/03/25 07:55:32;;;;;;;2.17;1.00;;;9.40;77.10;;;;;;5030683;28;20430;-75
2023/03/25 07:58:00;;;;;;;4.53;1.53;;;9.40;77.40;;;;;;5031462;28;20177;-78
2023/03/25 08:00:26;;;;;;;7.70;1.23;;;9.40;77.30;;;;;;5025861;28;20558;-78
2023/03/25 08:02:52;;;;;;;1.77;0.80;;;9.50;77.10;;;;;;5028673;28;20825;-77
2023/03/25 08:05:20;;;;;;;1.80;0.80;;;9.60;76.50;;;;;;5031975;28;20463;-76
2023/03/25 08:07:51;;;;;;;2.80;1.23;;;9.70;75.40;;;;;;5030153;28;20223;-76
2023/03/25 08:10:18;;;;;;;1.40;0.73;;;9.80;75.10;;;;;;5029480;28;20416;-76
2023/03/25 08:12:44;;;;;;;1.43;0.80;;;9.80;74.60;;;;;;5027539;28;20467;-77
2023/03/25 08:15:10;;;;;;;1.97;1.10;;;9.90;74.60;;;;;;5029706;28;20437;-76
2023/03/25 08:17:37;;;;;;;2.80;1.00;;;9.90;74.50;;;;;;5026842;28;20205;-77
2023/03/25 08:20:04;;;;;;;2.67;1.30;;;9.90;74.60;;;;;;5025593;28;20938;-77
2023/03/25 08:22:30;;;;;;;7.13;1.40;;;9.90;74.50;;;;;;5023681;28;20857;-76
2023/03/25 08:24:56;;;;;;;4.90;1.20;;;10.00;74.50;;;;;;5024381;28;20455;-77
2023/03/25 08:27:22;;;;;;;2.17;1.07;;;10.00;74.20;;;;;;5024087;28;20433;-77
2023/03/25 08:29:53;;;;;;;3.83;1.10;;;10.00;74.20;;;;;;5024099;28;20174;-77
2023/03/25 08:32:20;;;;;;;2.70;1.10;;;10.10;74.00;;;;;;5021610;28;20452;-77
2023/03/25 08:34:46;;;;;;;2.20;1.00;;;10.20;74.20;;;;;;5033343;28;20802;-78
2023/03/25 08:37:12;;;;;;;4.27;1.30;;;10.20;73.70;;;;;;5032632;28;20419;-77
2023/03/25 08:39:41;;;;;;;1.60;0.70;;;10.30;74.00;;;;;;5033337;28;20204;-77
2023/03/25 08:42:10;;;;;;;1.27;0.80;;;10.30;74.50;;;;;;5029275;28;20478;-77
2023/03/25 08:44:36;;;;;;;2.67;0.70;;;10.10;75.50;;;;;;5035288;28;20510;-77
2023/03/25 08:47:02;;;;;;;1.47;0.63;;;9.80;76.10;;;;;;5032954;28;20904;-76
2023/03/25 08:49:28;;;;;;;0.90;0.60;;;9.50;77.80;;;;;;5029767;28;20752;-76
2023/03/25 08:51:56;;;;;;;1.23;0.50;;;9.20;79.30;;;;;;5023968;28;20546;-77
2023/03/25 08:54:22;;;;;;;1.03;0.60;;;8.90;81.50;;;;;;5032124;28;20234;-77
2023/03/25 08:56:47;;;;;;;0.70;0.60;;;8.70;82.50;;;;;;5030444;28;20428;-75
2023/03/25 08:59:13;;;;;;;1.30;0.70;;;8.50;83.40;;;;;;5031286;28;20187;-76
2023/03/25 09:01:39;;;;;;;2.03;1.03;;;8.40;83.70;;;;;;5030440;28;20209;-76
2023/03/25 09:04:04;;;;;;;1.77;1.00;;;8.40;85.00;;;;;;5027972;28;20359;-75
2023/03/25 09:06:30;;;;;;;1.23;0.70;;;8.40;85.60;;;;;;5029617;28;20275;-77
2023/03/25 09:08:56;;;;;;;2.73;1.07;;;8.40;86.20;;;;;;5028571;28;20534;-76
2023/03/25 09:11:21;;;;;;;2.60;0.80;;;8.40;86.60;;;;;;5032457;28;20271;-76
2023/03/25 09:13:47;;;;;;;4.17;0.90;;;8.40;87.30;;;;;;5036728;28;20534;-74
2023/03/25 09:16:12;;;;;;;2.53;1.00;;;8.40;87.60;;;;;;5033460;28;20185;-76
2023/03/25 09:18:38;;;;;;;1.93;0.90;;;8.40;88.10;;;;;;5034786;28;20213;-75
2023/03/25 09:21:04;;;;;;;1.70;0.90;;;8.50;88.40;;;;;;5034380;28;20255;-74
2023/03/25 09:23:30;;;;;;;1.33;0.80;;;8.50;88.60;;;;;;5036637;28;20177;-76
2023/03/25 09:26:00;;;;;;;2.03;0.87;;;8.50;88.70;;;;;;5036810;28;20468;-75
2023/03/25 09:28:26;;;;;;;2.23;0.87;;;8.50;88.10;;;;;;5037494;28;20420;-76
2023/03/25 09:30:53;;;;;;;1.60;1.00;;;8.50;86.90;;;;;;5026570;28;20531;-76
2023/03/25 09:33:19;;;;;;;2.33;0.90;;;8.60;86.60;;;;;;5037599;28;20189;-77
2023/03/25 09:35:45;;;;;;;1.10;0.90;;;8.80;86.60;;;;;;5035336;28;20795;-75
2023/03/25 09:38:12;;;;;;;2.10;1.00;;;8.90;87.00;;;;;;5023536;28;20542;-75
2023/03/25 09:40:41;;;;;;;1.87;0.90;;;9.10;87.00;;;;;;5035940;28;20454;-77
2023/03/25 09:43:27;;;;;;;1.70;0.97;;;9.20;87.30;;;;;;5036020;28;20411;-74
2023/03/25 09:45:54;;;;;;;1.20;0.83;;;9.30;87.00;;;;;;5032886;28;20470;-76
2023/03/25 09:48:37;;;;;;;1.03;0.83;;;9.30;86.60;;;;;;5037287;28;20420;-74
2023/03/25 09:51:25;;;;;;;1.80;0.97;;;9.40;86.60;;;;;;5035184;28;20482;-77
2023/03/25 09:54:05;;;;;;;4.10;1.00;;;9.60;86.50;;;;;;5028777;28;20428;-76
2023/03/25 09:56:36;;;;;;;2.50;1.10;;;9.90;85.90;;;;;;5034616;28;20435;-77
2023/03/25 09:59:08;;;;;;;2.53;1.10;;;10.00;84.30;;;;;;5033233;28;20416;-75
2023/03/25 10:01:37;;;;;;;2.80;0.80;;;10.20;84.70;;;;;;5034530;28;20463;-76
2023/03/25 10:04:09;;;;;;;2.40;1.10;;;10.20;83.70;;;;;;5034219;28;20438;-75
2023/03/25 10:06:47;;;;;;;3.50;1.03;;;10.30;83.30;;;;;;5035427;28;20522;-76
2023/03/25 10:09:33;;;;;;;3.27;0.97;;;10.30;83.30;;;;;;5037353;28;20420;-77
2023/03/25 10:12:03;;;;;;;3.00;1.07;;;10.30;82.10;;;;;;5027549;28;20475;-77
2023/03/25 10:14:36;;;;;;;3.53;0.97;;;10.40;83.30;;;;;;5029584;28;20419;-74
2023/03/25 10:17:12;;;;;;;6.10;1.20;;;10.20;82.10;;;;;;5031170;28;20508;-76
2023/03/25 10:19:55;;;;;;;3.03;1.03;;;9.90;83.60;;;;;;5024793;28;20427;-74
2023/03/25 10:22:33;;;;;;;1.53;0.93;;;9.90;84.60;;;;;;5026341;28;20782;-74
2023/03/25 10:25:13;;;;;;;1.73;1.10;;;10.00;85.20;;;;;;5032012;28;20471;-75
2023/03/25 10:27:41;;;;;;;2.60;1.17;;;10.10;83.00;;;;;;5024225;28;20415;-75
2023/03/25 10:30:17;;;;;;;3.47;1.07;;;10.20;82.70;;;;;;5026774;28;20434;-77
2023/03/25 10:32:47;;;;;;;1.60;0.93;;;10.60;82.80;;;;;;5025628;28;20485;-75
2023/03/25 10:35:31;;;;;;;5.17;1.90;;;11.10;81.90;;;;;;5031445;28;20412;-75
2023/03/25 10:38:06;;;;;;;3.60;1.00;;;11.40;76.40;;;;;;5031285;28;20419;-77
2023/03/25 10:40:43;;;;;;;1.30;0.80;;;11.50;74.50;;;;;;5028338;28;20407;-77
2023/03/25 10:43:35;;;;;;;1.63;0.80;;;11.50;72.30;;;;;;5031013;28;20431;-76
2023/03/25 10:46:07;;;;;;;1.73;0.80;;;11.50;73.20;;;;;;5027780;28;20460;-76
2023/03/25 10:48:33;;;;;;;1.60;0.87;;;11.80;72.60;;;;;;5030240;28;20427;-77
2023/03/25 10:51:15;;;;;;;4.10;1.03;;;11.90;72.40;;;;;;5024770;28;20466;-76
2023/03/25 10:53:41;;;;;;;1.33;0.70;;;11.80;72.40;;;;;;5029908;28;20412;-75
2023/03/25 10:56:13;;;;;;;1.00;0.80;;;11.80;71.10;;;;;;5032001;28;20930;-76
2023/03/25 10:58:40;;;;;;;1.50;0.70;;;11.50;69.80;;;;;;5028198;28;20427;-77
2023/03/25 11:01:11;;;;;;;2.00;0.90;;;11.50;71.30;;;;;;5030961;28;20540;-78
2023/03/25 11:03:39;;;;;;;1.07;0.90;;;11.70;71.70;;;;;;5032223;28;20469;-76
2023/03/25 11:06:05;;;;;;;1.83;0.93;;;11.90;72.00;;;;;;5029575;28;20459;-78
2023/03/25 11:08:31;;;;;;;1.40;0.90;;;11.70;69.90;;;;;;5023347;28;20838;-78
2023/03/25 11:10:59;;;;;;;1.10;0.80;;;11.60;70.10;;;;;;5033780;28;20455;-77
2023/03/25 11:13:28;;;;;;;1.23;0.83;;;11.70;69.50;;;;;;5038066;28;20196;-77
2023/03/25 11:15:58;;;;;;;3.50;0.70;;;11.40;71.60;;;;;;5032797;28;21007;-77
2023/03/25 11:18:37;;;;;;;1.30;0.80;;;11.40;72.30;;;;;;5024166;28;20417;-76
2023/03/25 11:21:07;;;;;;;1.80;0.80;;;11.40;73.50;;;;;;5028793;28;20554;-77
2023/03/25 11:23:35;;;;;;;1.83;0.70;;;11.50;71.30;;;;;;5025146;28;20412;-77
2023/03/25 11:26:13;;;;;;;2.30;0.93;;;11.70;71.30;;;;;;5022556;28;20473;-76
2023/03/25 11:28:45;;;;;;;0.90;0.63;;;12.00;70.50;;;;;;5026707;28;20448;-78
2023/03/25 11:31:18;;;;;;;6.50;1.10;;;12.40;69.20;;;;;;5027973;28;20459;-78
2023/03/25 11:33:59;;;;;;;2.10;0.80;;;12.80;68.80;;;;;;5021077;28;20421;-78
2023/03/25 11:36:28;;;;;;;1.93;1.20;;;13.10;67.70;;;;;;5029337;28;20909;-78
2023/03/25 11:39:08;;;;;;;2.90;0.80;;;12.80;67.60;;;;;;5031505;28;20416;-77
2023/03/25 11:41:35;;;;;;;1.30;0.83;;;12.60;68.30;;;;;;5025508;28;20791;-78
2023/03/25 11:44:04;;;;;;;1.73;1.03;;;12.80;67.60;;;;;;5031296;28;20415;-78
2023/03/25 11:46:31;;;;;;;1.20;0.80;;;12.90;67.50;;;;;;5029025;28;20456;-77
2023/03/25 11:49:06;;;;;;;2.67;1.03;;;13.20;66.90;;;;;;5030974;28;20535;-78
2023/03/25 11:51:33;;;;;;;1.43;0.80;;;13.20;65.30;;;;;;5027868;28;20579;-79
2023/03/25 11:54:06;;;;;;;4.20;1.10;;;13.20;65.80;;;;;;5016030;28;20417;-77
2023/03/25 11:56:38;;;;;;;1.90;1.00;;;13.40;65.70;;;;;;5023284;28;20943;-77
2023/03/25 11:59:15;;;;;;;3.53;1.40;;;13.50;64.80;;;;;;5031911;28;20430;-76
2023/03/25 12:01:45;;;;;;;1.57;0.90;;;13.50;65.10;;;;;;5024180;28;20463;-76
2023/03/25 12:04:30;;;;;;;4.60;1.07;;;13.10;65.00;;;;;;5026932;28;20420;-77
2023/03/25 12:07:01;;;;;;;1.77;0.90;;;12.60;66.30;;;;;;5025292;28;20452;-78
2023/03/25 12:09:30;;;;;;;1.30;1.00;;;12.70;68.00;;;;;;5030972;28;20586;-77
2023/03/25 12:12:25;;;;;;;2.13;0.90;;;12.80;66.60;;;;;;5027127;28;20494;-77
2023/03/25 12:15:06;;;;;;;2.97;0.90;;;13.10;66.00;;;;;;5035303;28;20427;-77
2023/03/25 12:17:50;;;;;;;3.53;1.00;;;13.10;65.80;;;;;;5028845;28;20437;-77
2023/03/25 12:20:27;;;;;;;1.10;0.70;;;13.30;65.40;;;;;;5034321;28;20412;-79
2023/03/25 12:23:14;;;;;;;1.40;0.70;;;13.60;63.90;;;;;;5033732;28;20456;-78
2023/03/25 12:26:09;;;;;;;2.30;0.90;;;13.80;63.80;;;;;;5030777;28;20468;-79
2023/03/25 12:29:00;;;;;;;1.43;0.93;;;14.10;62.50;;;;;;5028601;28;20440;-78
2023/03/25 12:31:40;;;;;;;1.17;0.90;;;13.50;63.40;;;;;;5047917;28;20463;-77
2023/03/25 12:34:38;;;;;;;1.23;0.77;;;13.30;64.10;;;;;;5035136;28;20427;-79
2023/03/25 12:37:16;;;;;;;2.50;0.80;;;13.60;63.90;;;;;;5029740;28;20419;-78
2023/03/25 12:39:42;;;;;;;1.60;0.70;;;13.10;63.70;;;;;;5034107;28;20427;-77
2023/03/25 12:42:22;;;;;;;1.90;1.03;;;13.00;65.10;;;;;;5026195;28;20445;-78
2023/03/25 12:45:08;;;;;;;4.03;1.10;;;12.60;65.60;;;;;;5034791;28;20185;-78
2023/03/25 12:47:52;;;;;;;4.30;1.00;;;12.50;66.10;;;;;;5039309;28;20420;-78
2023/03/25 12:50:30;;;;;;;1.50;0.70;;;12.40;67.50;;;;;;5036399;28;20408;-76
2023/03/25 12:53:20;;;;;;;2.20;0.90;;;12.10;69.10;;;;;;5036741;28;20407;-76
2023/03/25 12:56:13;;;;;;;1.80;0.90;;;11.60;71.00;;;;;;5037732;28;20435;-76
2023/03/25 12:59:03;;;;;;;4.37;1.70;;;10.90;72.30;;;;;;5030720;28;20481;-79
2023/03/25 13:01:58;;;;;;;2.70;0.90;;;10.80;75.70;;;;;;5042788;28;20511;-76
2023/03/25 13:04:48;;;;;;;2.77;1.03;;;11.00;76.40;;;;;;5034148;28;20431;-78
2023/03/25 13:07:26;;;;;;;3.33;1.30;;;11.20;75.10;;;;;;5039900;28;20904;-77
2023/03/25 13:10:00;;;;;;;1.73;1.07;;;11.70;74.30;;;;;;5040172;28;20470;-79
2023/03/25 13:12:39;;;;;;;1.60;1.00;;;12.10;72.60;;;;;;5032708;28;20510;-77
2023/03/25 13:15:17;;;;;;;1.63;0.73;;;12.50;71.80;;;;;;5042214;28;20508;-77